sensor_id;sensor_type;location;lat;lon;timestamp;temperature;humidity
19025;DHT22;9645;51.448;6.260;2023-04-01T00:01:59;9.60;99.90
19025;DHT22;9645;51.448;6.260;2023-04-01T00:04:26;9.60;99.90
19025;DHT22;9645;51.448;6.260;2023-04-01T00:06:53;9.60;99.90
19025;DHT22;9645;51.448;6.260;2023-04-01T00:09:20;9.50;99.90
19025;DHT22;9645;51.448;6.260;2023-04-01T00:11:47;9.60;99.90
19025;DHT22;9645;51.448;6.260;2023-04-01T00:14:14;9.60;99.90
19025;DHT22;9645;51.448;6.260;2023-04-01T00:16:42;9.60;99.90
19025;DHT22;9645;51.448;6.260;2023-04-01T00:19:10;9.60;99.90
19025;DHT22;9645;51.448;6.260;2023-04-01T00:21:36;9.60;99.90
19025;DHT22;9645;51.448;6.260;2023-04-01T00:24:04;9.60;99.90
19025;DHT22;9645;51.448;6.260;2023-04-01T00:26:31;9.70;99.90
19025;DHT22;9645;51.448;6.260;2023-04-01T00:28:58;9.60;99.90
19025;DHT22;9645;51.448;6.260;2023-04-01T00:31:26;9.60;99.90
19025;DHT22;9645;51.448;6.260;2023-04-01T00:33:54;9.60;99.90
19025;DHT22;9645;51.448;6.260;2023-04-01T00:36:22;9.60;99.90
19025;DHT22;9645;51.448;6.260;2023-04-01T00:38:49;9.60;99.90
19025;DHT22;9645;51.448;6.260;2023-04-01T00:41:18;9.60;99.90
19025;DHT22;9645;51.448;6.260;2023-04-01T00:43:48;9.60;99.90
19025;DHT22;9645;51.448;6.260;2023-04-01T00:46:15;9.60;99.90
19025;DHT22;9645;51.448;6.260;2023-04-01T00:48:45;9.60;99.90
19025;DHT22;9645;51.448;6.260;2023-04-01T00:51:17;9.60;99.90
19025;DHT22;9645;51.448;6.260;2023-04-01T00:53:46;9.60;99.90
19025;DHT22;9645;51.448;6.260;2023-04-01T00:56:16;9.60;99.90
19025;DHT22;9645;51.448;6.260;2023-04-01T00:58:47;9.60;99.90
19025;DHT22;9645;51.448;6.260;2023-04-01T01:01:15;9.60;99.90
19025;DHT22;9645;51.448;6.260;2023-04-01T01:03:42;9.60;99.90
19025;DHT22;9645;51.448;6.260;2023-04-01T01:06:23;9.60;99.90
19025;DHT22;9645;51.448;6.260;2023-04-01T01:09:10;9.60;99.90
19025;DHT22;9645;51.448;6.260;2023-04-01T01:11:42;9.60;99.90
19025;DHT22;9645;51.448;6.260;2023-04-01T01:14:19;9.60;99.90
19025;DHT22;9645;51.448;6.260;2023-04-01T01:16:53;9.70;99.90
19025;DHT22;9645;51.448;6.260;2023-04-01T01:19:43;9.70;99.90
19025;DHT22;9645;51.448;6.260;2023-04-01T01:22:28;9.70;99.90
19025;DHT22;9645;51.448;6.260;2023-04-01T01:25:12;9.60;99.90
19025;DHT22;9645;51.448;6.260;2023-04-01T01:27:46;9.60;99.90
19025;DHT22;9645;51.448;6.260;2023-04-01T01:30:29;9.60;99.90
19025;DHT22;9645;51.448;6.260;2023-04-01T01:33:10;9.60;99.90
19025;DHT22;9645;51.448;6.260;2023-04-01T01:35:44;9.60;99.90
19025;DHT22;9645;51.448;6.260;2023-04-01T01:38:15;9.60;99.90
19025;DHT22;9645;51.448;6.260;2023-04-01T01:40:44;9.30;99.90
19025;DHT22;9645;51.448;6.260;2023-04-01T01:43:16;9.60;99.90
19025;DHT22;9645;51.448;6.260;2023-04-01T01:45:48;9.60;99.90
19025;DHT22;9645;51.448;6.260;2023-04-01T01:48:17;9.60;99.90
19025;DHT22;9645;51.448;6.260;2023-04-01T01:50:48;9.60;99.90
19025;DHT22;9645;51.448;6.260;2023-04-01T01:53:16;9.60;99.90
19025;DHT22;9645;51.448;6.260;2023-04-01T01:55:45;9.60;99.90
19025;DHT22;9645;51.448;6.260;2023-04-01T01:58:16;9.50;99.90
19025;DHT22;9645;51.448;6.260;2023-04-01T02:00:48;9.50;99.90
19025;DHT22;9645;51.448;6.260;2023-04-01T02:03:17;9.50;99.90
19025;DHT22;9645;51.448;6.260;2023-04-01T02:05:49;9.40;99.90
19025;DHT22;9645;51.448;6.260;2023-04-01T02:08:21;9.40;99.90
19025;DHT22;9645;51.448;6.260;2023-04-01T02:10:56;9.40;99.90
19025;DHT22;9645;51.448;6.260;2023-04-01T02:13:28;9.50;99.90
19025;DHT22;9645;51.448;6.260;2023-04-01T02:15:59;9.50;99.90
19025;DHT22;9645;51.448;6.260;2023-04-01T02:18:30;9.50;99.90
19025;DHT22;9645;51.448;6.260;2023-04-01T02:21:02;9.50;99.90
19025;DHT22;9645;51.448;6.260;2023-04-01T02:23:32;9.50;99.90
19025;DHT22;9645;51.448;6.260;2023-04-01T02:26:00;9.50;99.90
19025;DHT22;9645;51.448;6.260;2023-04-01T02:28:29;9.50;99.90
19025;DHT22;9645;51.448;6.260;2023-04-01T02:30:59;9.50;99.90
19025;DHT22;9645;51.448;6.260;2023-04-01T02:33:28;9.50;99.90
19025;DHT22;9645;51.448;6.260;2023-04-01T02:35:56;9.50;99.90
19025;DHT22;9645;51.448;6.260;2023-04-01T02:38:24;9.50;99.90
19025;DHT22;9645;51.448;6.260;2023-04-01T02:40:57;9.50;99.90
19025;DHT22;9645;51.448;6.260;2023-04-01T02:43:24;9.50;99.90
19025;DHT22;9645;51.448;6.260;2023-04-01T02:45:51;9.50;99.90
19025;DHT22;9645;51.448;6.260;2023-04-01T02:48:18;9.50;99.90
19025;DHT22;9645;51.448;6.260;2023-04-01T02:50:45;9.50;99.90
19025;DHT22;9645;51.448;6.260;2023-04-01T02:53:12;9.50;99.90
19025;DHT22;9645;51.448;6.260;2023-04-01T02:55:40;9.50;99.90
19025;DHT22;9645;51.448;6.260;2023-04-01T02:58:07;9.50;99.90
19025;DHT22;9645;51.448;6.260;2023-04-01T03:00:34;9.50;99.90
19025;DHT22;9645;51.448;6.260;2023-04-01T03:03:01;9.40;99.90
19025;DHT22;9645;51.448;6.260;2023-04-01T03:05:29;9.40;99.90
19025;DHT22;9645;51.448;6.260;2023-04-01T03:07:56;9.50;99.90
19025;DHT22;9645;51.448;6.260;2023-04-01T03:10:23;9.40;99.90
19025;DHT22;9645;51.448;6.260;2023-04-01T03:12:51;9.40;99.90
19025;DHT22;9645;51.448;6.260;2023-04-01T03:15:19;9.50;99.90
19025;DHT22;9645;51.448;6.260;2023-04-01T03:17:46;9.50;99.90
19025;DHT22;9645;51.448;6.260;2023-04-01T03:20:13;9.50;99.90
19025;DHT22;9645;51.448;6.260;2023-04-01T03:22:41;9.50;99.90
19025;DHT22;9645;51.448;6.260;2023-04-01T03:25:08;9.50;99.90
19025;DHT22;9645;51.448;6.260;2023-04-01T03:27:36;9.50;99.90
19025;DHT22;9645;51.448;6.260;2023-04-01T03:30:06;9.50;99.90
19025;DHT22;9645;51.448;6.260;2023-04-01T03:32:33;9.50;99.90
19025;DHT22;9645;51.448;6.260;2023-04-01T03:35:00;9.50;99.90
19025;DHT22;9645;51.448;6.260;2023-04-01T03:37:27;9.50;99.90
19025;DHT22;9645;51.448;6.260;2023-04-01T03:39:54;9.50;99.90
19025;DHT22;9645;51.448;6.260;2023-04-01T03:42:21;9.50;99.90
19025;DHT22;9645;51.448;6.260;2023-04-01T03:44:48;9.50;99.90
19025;DHT22;9645;51.448;6.260;2023-04-01T03:47:16;9.50;99.90
19025;DHT22;9645;51.448;6.260;2023-04-01T03:49:43;9.60;99.90
19025;DHT22;9645;51.448;6.260;2023-04-01T03:52:10;9.60;99.90
19025;DHT22;9645;51.448;6.260;2023-04-01T03:54:38;9.60;99.90
19025;DHT22;9645;51.448;6.260;2023-04-01T03:57:05;9.50;99.90
19025;DHT22;9645;51.448;6.260;2023-04-01T03:59:32;9.50;99.90
19025;DHT22;9645;51.448;6.260;2023-04-01T04:01:59;9.50;99.90
19025;DHT22;9645;51.448;6.260;2023-04-01T04:04:28;9.50;99.90
19025;DHT22;9645;51.448;6.260;2023-04-01T04:06:55;9.50;99.90
19025;DHT22;9645;51.448;6.260;2023-04-01T04:09:22;9.50;99.90
19025;DHT22;9645;51.448;6.260;2023-04-01T04:11:50;9.50;99.90
19025;DHT22;9645;51.448;6.260;2023-04-01T04:14:17;9.50;99.90
19025;DHT22;9645;51.448;6.260;2023-04-01T04:16:44;9.50;99.90
19025;DHT22;9645;51.448;6.260;2023-04-01T04:19:11;10.70;99.90
19025;DHT22;9645;51.448;6.260;2023-04-01T04:21:39;9.40;99.90
19025;DHT22;9645;51.448;6.260;2023-04-01T04:24:06;9.40;99.90
19025;DHT22;9645;51.448;6.260;2023-04-01T04:26:33;9.40;99.90
19025;DHT22;9645;51.448;6.260;2023-04-01T04:29:00;9.40;99.90
19025;DHT22;9645;51.448;6.260;2023-04-01T04:31:28;9.40;99.90
19025;DHT22;9645;51.448;6.260;2023-04-01T04:33:55;9.40;99.90
19025;DHT22;9645;51.448;6.260;2023-04-01T04:36:22;9.40;99.90
19025;DHT22;9645;51.448;6.260;2023-04-01T04:38:51;9.40;99.90
19025;DHT22;9645;51.448;6.260;2023-04-01T04:41:19;9.40;99.90
19025;DHT22;9645;51.448;6.260;2023-04-01T04:43:51;9.40;99.90
19025;DHT22;9645;51.448;6.260;2023-04-01T04:46:19;9.40;99.90
19025;DHT22;9645;51.448;6.260;2023-04-01T04:48:46;9.40;99.90
19025;DHT22;9645;51.448;6.260;2023-04-01T04:51:14;9.40;99.90
19025;DHT22;9645;51.448;6.260;2023-04-01T04:53:42;9.40;99.90
19025;DHT22;9645;51.448;6.260;2023-04-01T04:56:11;9.40;99.90
19025;DHT22;9645;51.448;6.260;2023-04-01T04:58:39;9.40;99.90
19025;DHT22;9645;51.448;6.260;2023-04-01T05:01:08;9.40;99.90
19025;DHT22;9645;51.448;6.260;2023-04-01T05:03:36;9.40;99.90
19025;DHT22;9645;51.448;6.260;2023-04-01T05:06:04;9.40;99.90
19025;DHT22;9645;51.448;6.260;2023-04-01T05:08:32;9.40;99.90
19025;DHT22;9645;51.448;6.260;2023-04-01T05:10:59;9.40;99.90
19025;DHT22;9645;51.448;6.260;2023-04-01T05:13:28;9.40;99.90
19025;DHT22;9645;51.448;6.260;2023-04-01T05:15:55;9.40;99.90
19025;DHT22;9645;51.448;6.260;2023-04-01T05:18:22;9.40;99.90
19025;DHT22;9645;51.448;6.260;2023-04-01T05:20:51;9.50;99.90
19025;DHT22;9645;51.448;6.260;2023-04-01T05:23:18;9.40;99.90
19025;DHT22;9645;51.448;6.260;2023-04-01T05:25:46;9.40;99.90
19025;DHT22;9645;51.448;6.260;2023-04-01T05:28:14;9.40;99.90
19025;DHT22;9645;51.448;6.260;2023-04-01T05:30:43;9.40;99.90
19025;DHT22;9645;51.448;6.260;2023-04-01T05:33:11;7.70;99.90
19025;DHT22;9645;51.448;6.260;2023-04-01T05:35:39;9.40;99.90
19025;DHT22;9645;51.448;6.260;2023-04-01T05:38:06;9.40;99.90
19025;DHT22;9645;51.448;6.260;2023-04-01T05:40:33;9.40;99.90
19025;DHT22;9645;51.448;6.260;2023-04-01T05:43:00;9.40;99.90
19025;DHT22;9645;51.448;6.260;2023-04-01T05:45:27;9.60;99.90
19025;DHT22;9645;51.448;6.260;2023-04-01T05:47:55;9.30;99.90
19025;DHT22;9645;51.448;6.260;2023-04-01T05:50:23;9.30;99.90
19025;DHT22;9645;51.448;6.260;2023-04-01T05:52:50;9.30;99.90
19025;DHT22;9645;51.448;6.260;2023-04-01T05:55:18;9.30;99.90
19025;DHT22;9645;51.448;6.260;2023-04-01T05:57:45;9.30;99.90
19025;DHT22;9645;51.448;6.260;2023-04-01T06:00:15;9.30;99.90
19025;DHT22;9645;51.448;6.260;2023-04-01T06:02:42;9.30;99.90
19025;DHT22;9645;51.448;6.260;2023-04-01T06:05:15;9.00;99.90
19025;DHT22;9645;51.448;6.260;2023-04-01T06:07:43;9.30;99.90
19025;DHT22;9645;51.448;6.260;2023-04-01T06:10:13;9.30;99.90
19025;DHT22;9645;51.448;6.260;2023-04-01T06:12:56;9.20;99.90
19025;DHT22;9645;51.448;6.260;2023-04-01T06:15:36;9.20;99.90
19025;DHT22;9645;51.448;6.260;2023-04-01T06:18:25;9.30;99.90
19025;DHT22;9645;51.448;6.260;2023-04-01T06:21:03;9.30;99.90
19025;DHT22;9645;51.448;6.260;2023-04-01T06:23:44;9.30;99.90
19025;DHT22;9645;51.448;6.260;2023-04-01T06:26:20;9.30;99.90
19025;DHT22;9645;51.448;6.260;2023-04-01T06:31:55;9.30;99.90
19025;DHT22;9645;51.448;6.260;2023-04-01T06:37:32;9.30;99.90
19025;DHT22;9645;51.448;6.260;2023-04-01T06:40:18;9.30;99.90
19025;DHT22;9645;51.448;6.260;2023-04-01T06:42:56;9.40;99.90
19025;DHT22;9645;51.448;6.260;2023-04-01T06:45:34;9.40;99.90
19025;DHT22;9645;51.448;6.260;2023-04-01T06:48:16;9.40;99.90
19025;DHT22;9645;51.448;6.260;2023-04-01T06:50:52;9.40;99.90
19025;DHT22;9645;51.448;6.260;2023-04-01T06:53:28;9.40;99.90
19025;DHT22;9645;51.448;6.260;2023-04-01T06:55:59;9.40;99.90
19025;DHT22;9645;51.448;6.260;2023-04-01T06:58:30;9.40;99.90
19025;DHT22;9645;51.448;6.260;2023-04-01T07:01:03;9.40;99.90
19025;DHT22;9645;51.448;6.260;2023-04-01T07:03:32;9.40;99.90
19025;DHT22;9645;51.448;6.260;2023-04-01T07:06:03;9.40;99.90
19025;DHT22;9645;51.448;6.260;2023-04-01T07:08:36;9.40;99.90
19025;DHT22;9645;51.448;6.260;2023-04-01T07:11:05;9.40;99.90
19025;DHT22;9645;51.448;6.260;2023-04-01T07:13:36;9.40;99.90
19025;DHT22;9645;51.448;6.260;2023-04-01T07:16:12;9.40;99.90
19025;DHT22;9645;51.448;6.260;2023-04-01T07:18:44;9.40;99.90
19025;DHT22;9645;51.448;6.260;2023-04-01T07:21:23;9.40;99.90
19025;DHT22;9645;51.448;6.260;2023-04-01T07:23:56;8.50;99.90
19025;DHT22;9645;51.448;6.260;2023-04-01T07:26:24;9.50;99.90
19025;DHT22;9645;51.448;6.260;2023-04-01T07:28:53;9.40;99.90
19025;DHT22;9645;51.448;6.260;2023-04-01T07:31:30;9.50;99.90
19025;DHT22;9645;51.448;6.260;2023-04-01T07:34:06;9.60;99.90
19025;DHT22;9645;51.448;6.260;2023-04-01T07:36:40;9.60;99.90
19025;DHT22;9645;51.448;6.260;2023-04-01T07:39:19;9.60;99.90
19025;DHT22;9645;51.448;6.260;2023-04-01T07:41:51;9.60;99.90
19025;DHT22;9645;51.448;6.260;2023-04-01T07:44:28;9.60;99.90
19025;DHT22;9645;51.448;6.260;2023-04-01T07:47:21;9.60;99.90
19025;DHT22;9645;51.448;6.260;2023-04-01T07:49:58;9.60;99.90
19025;DHT22;9645;51.448;6.260;2023-04-01T07:52:33;9.60;99.90
19025;DHT22;9645;51.448;6.260;2023-04-01T07:55:07;8.80;99.90
19025;DHT22;9645;51.448;6.260;2023-04-01T07:57:38;9.70;99.90
19025;DHT22;9645;51.448;6.260;2023-04-01T08:00:15;9.80;99.90
19025;DHT22;9645;51.448;6.260;2023-04-01T08:02:58;9.80;99.90
19025;DHT22;9645;51.448;6.260;2023-04-01T08:05:32;9.90;99.90
19025;DHT22;9645;51.448;6.260;2023-04-01T08:08:09;9.90;99.90
19025;DHT22;9645;51.448;6.260;2023-04-01T08:10:45;9.90;99.90
19025;DHT22;9645;51.448;6.260;2023-04-01T08:13:21;9.90;99.90
19025;DHT22;9645;51.448;6.260;2023-04-01T08:15:55;9.90;99.90
19025;DHT22;9645;51.448;6.260;2023-04-01T08:18:33;9.90;99.90
19025;DHT22;9645;51.448;6.260;2023-04-01T08:21:12;10.00;99.90
19025;DHT22;9645;51.448;6.260;2023-04-01T08:23:45;10.00;99.90
19025;DHT22;9645;51.448;6.260;2023-04-01T08:26:29;10.00;99.90
19025;DHT22;9645;51.448;6.260;2023-04-01T08:29:02;10.00;99.90
19025;DHT22;9645;51.448;6.260;2023-04-01T08:31:35;10.00;99.90
19025;DHT22;9645;51.448;6.260;2023-04-01T08:34:16;10.10;99.90
19025;DHT22;9645;51.448;6.260;2023-04-01T08:36:48;10.10;99.90
19025;DHT22;9645;51.448;6.260;2023-04-01T08:39:27;10.10;99.90
19025;DHT22;9645;51.448;6.260;2023-04-01T08:42:14;10.10;99.90
19025;DHT22;9645;51.448;6.260;2023-04-01T08:45:06;10.10;99.90
19025;DHT22;9645;51.448;6.260;2023-04-01T08:47:46;10.10;99.90
19025;DHT22;9645;51.448;6.260;2023-04-01T08:50:41;10.20;99.90
19025;DHT22;9645;51.448;6.260;2023-04-01T08:53:15;10.20;99.90
19025;DHT22;9645;51.448;6.260;2023-04-01T08:55:54;10.30;99.90
19025;DHT22;9645;51.448;6.260;2023-04-01T08:58:53;10.40;99.90
19025;DHT22;9645;51.448;6.260;2023-04-01T09:01:33;10.40;99.90
19025;DHT22;9645;51.448;6.260;2023-04-01T09:04:23;10.40;99.90
19025;DHT22;9645;51.448;6.260;2023-04-01T09:07:07;10.40;99.90
19025;DHT22;9645;51.448;6.260;2023-04-01T09:12:59;10.50;99.90
19025;DHT22;9645;51.448;6.260;2023-04-01T09:15:47;10.60;99.90
19025;DHT22;9645;51.448;6.260;2023-04-01T09:18:54;10.60;99.90
19025;DHT22;9645;51.448;6.260;2023-04-01T09:21:52;10.60;99.90
19025;DHT22;9645;51.448;6.260;2023-04-01T09:24:40;10.50;99.90
19025;DHT22;9645;51.448;6.260;2023-04-01T09:27:15;10.50;99.90
19025;DHT22;9645;51.448;6.260;2023-04-01T09:30:13;10.40;99.90
19025;DHT22;9645;51.448;6.260;2023-04-01T09:33:08;10.40;99.90
19025;DHT22;9645;51.448;6.260;2023-04-01T09:35:42;10.30;99.90
19025;DHT22;9645;51.448;6.260;2023-04-01T09:38:21;10.20;99.90
19025;DHT22;9645;51.448;6.260;2023-04-01T09:40:55;10.20;99.90
19025;DHT22;9645;51.448;6.260;2023-04-01T09:43:26;10.20;99.90
19025;DHT22;9645;51.448;6.260;2023-04-01T09:46:09;10.20;99.90
19025;DHT22;9645;51.448;6.260;2023-04-01T09:49:13;10.20;99.90
19025;DHT22;9645;51.448;6.260;2023-04-01T09:51:51;10.20;99.90
19025;DHT22;9645;51.448;6.260;2023-04-01T09:54:34;10.20;99.90
19025;DHT22;9645;51.448;6.260;2023-04-01T09:57:37;10.30;99.90
19025;DHT22;9645;51.448;6.260;2023-04-01T10:00:38;10.40;99.90
19025;DHT22;9645;51.448;6.260;2023-04-01T10:03:49;10.40;99.90
19025;DHT22;9645;51.448;6.260;2023-04-01T10:13:05;10.40;99.90
19025;DHT22;9645;51.448;6.260;2023-04-01T10:22:23;10.70;99.90
19025;DHT22;9645;51.448;6.260;2023-04-01T10:25:23;10.70;99.90
19025;DHT22;9645;51.448;6.260;2023-04-01T10:31:36;10.60;99.90
19025;DHT22;9645;51.448;6.260;2023-04-01T10:34:33;10.70;99.90
19025;DHT22;9645;51.448;6.260;2023-04-01T10:37:14;10.70;99.90
19025;DHT22;9645;51.448;6.260;2023-04-01T10:40:16;10.80;99.90
19025;DHT22;9645;51.448;6.260;2023-04-01T10:43:24;10.80;99.90
19025;DHT22;9645;51.448;6.260;2023-04-01T10:46:20;10.80;99.90
19025;DHT22;9645;51.448;6.260;2023-04-01T10:49:27;10.80;99.90
19025;DHT22;9645;51.448;6.260;2023-04-01T10:52:25;10.80;99.90
19025;DHT22;9645;51.448;6.260;2023-04-01T10:55:12;10.80;99.90
19025;DHT22;9645;51.448;6.260;2023-04-01T10:58:10;10.90;99.90
19025;DHT22;9645;51.448;6.260;2023-04-01T11:04:14;11.10;99.90
19025;DHT22;9645;51.448;6.260;2023-04-01T11:07:10;11.10;99.90
19025;DHT22;9645;51.448;6.260;2023-04-01T11:16:39;11.10;99.90
19025;DHT22;9645;51.448;6.260;2023-04-01T11:19:37;11.00;99.90
19025;DHT22;9645;51.448;6.260;2023-04-01T11:22:44;10.90;99.90
19025;DHT22;9645;51.448;6.260;2023-04-01T11:25:36;10.90;99.90
19025;DHT22;9645;51.448;6.260;2023-04-01T11:31:29;11.00;99.90
19025;DHT22;9645;51.448;6.260;2023-04-01T11:34:11;11.10;99.90
19025;DHT22;9645;51.448;6.260;2023-04-01T11:36:49;11.10;99.90
19025;DHT22;9645;51.448;6.260;2023-04-01T11:39:24;11.00;99.90
19025;DHT22;9645;51.448;6.260;2023-04-01T11:42:01;11.00;99.90
19025;DHT22;9645;51.448;6.260;2023-04-01T11:44:34;11.00;99.90
19025;DHT22;9645;51.448;6.260;2023-04-01T11:47:19;11.00;99.90
19025;DHT22;9645;51.448;6.260;2023-04-01T11:49:56;11.10;99.90
19025;DHT22;9645;51.448;6.260;2023-04-01T11:52:46;11.20;99.90
19025;DHT22;9645;51.448;6.260;2023-04-01T11:55:24;11.20;99.90
19025;DHT22;9645;51.448;6.260;2023-04-01T11:58:22;11.10;99.90
19025;DHT22;9645;51.448;6.260;2023-04-01T12:01:03;11.20;99.90
19025;DHT22;9645;51.448;6.260;2023-04-01T12:06:53;11.30;99.90
19025;DHT22;9645;51.448;6.260;2023-04-01T12:09:30;11.40;99.90
19025;DHT22;9645;51.448;6.260;2023-04-01T12:12:16;11.30;99.90
19025;DHT22;9645;51.448;6.260;2023-04-01T12:14:52;11.20;99.90
19025;DHT22;9645;51.448;6.260;2023-04-01T12:17:28;11.20;99.90
19025;DHT22;9645;51.448;6.260;2023-04-01T12:19:59;11.20;99.90
19025;DHT22;9645;51.448;6.260;2023-04-01T12:22:38;11.40;99.90
19025;DHT22;9645;51.448;6.260;2023-04-01T12:25:33;11.40;99.90
19025;DHT22;9645;51.448;6.260;2023-04-01T12:28:13;11.20;99.90
19025;DHT22;9645;51.448;6.260;2023-04-01T12:31:06;11.20;99.90
19025;DHT22;9645;51.448;6.260;2023-04-01T12:37:03;11.20;99.90
19025;DHT22;9645;51.448;6.260;2023-04-01T12:39:47;11.20;99.90
19025;DHT22;9645;51.448;6.260;2023-04-01T12:42:24;11.10;99.90
19025;DHT22;9645;51.448;6.260;2023-04-01T12:45:17;11.10;99.90
19025;DHT22;9645;51.448;6.260;2023-04-01T12:51:36;11.00;99.90
19025;DHT22;9645;51.448;6.260;2023-04-01T12:54:44;10.90;99.90
19025;DHT22;9645;51.448;6.260;2023-04-01T12:57:30;11.00;99.90
19025;DHT22;9645;51.448;6.260;2023-04-01T13:00:12;11.00;99.90
19025;DHT22;9645;51.448;6.260;2023-04-01T13:02:50;11.10;99.90
19025;DHT22;9645;51.448;6.260;2023-04-01T13:05:36;11.10;99.90
19025;DHT22;9645;51.448;6.260;2023-04-01T13:08:16;11.10;99.90
19025;DHT22;9645;51.448;6.260;2023-04-01T13:11:02;11.20;99.90
19025;DHT22;9645;51.448;6.260;2023-04-01T13:16:27;11.10;99.90
19025;DHT22;9645;51.448;6.260;2023-04-01T13:19:00;11.10;99.90
19025;DHT22;9645;51.448;6.260;2023-04-01T13:21:44;11.00;99.90
19025;DHT22;9645;51.448;6.260;2023-04-01T13:24:28;11.10;99.90
19025;DHT22;9645;51.448;6.260;2023-04-01T13:27:05;11.30;99.90
19025;DHT22;9645;51.448;6.260;2023-04-01T13:29:36;11.30;99.90
19025;DHT22;9645;51.448;6.260;2023-04-01T13:32:21;11.50;99.90
19025;DHT22;9645;51.448;6.260;2023-04-01T13:35:03;11.60;99.90
19025;DHT22;9645;51.448;6.260;2023-04-01T13:37:49;11.70;99.90
19025;DHT22;9645;51.448;6.260;2023-04-01T13:40:33;11.60;99.90
19025;DHT22;9645;51.448;6.260;2023-04-01T13:43:10;11.60;99.90
19025;DHT22;9645;51.448;6.260;2023-04-01T13:45:46;11.50;99.90
19025;DHT22;9645;51.448;6.260;2023-04-01T13:48:50;11.40;99.90
19025;DHT22;9645;51.448;6.260;2023-04-01T13:57:34;11.30;99.90
19025;DHT22;9645;51.448;6.260;2023-04-01T14:00:19;11.40;99.90
19025;DHT22;9645;51.448;6.260;2023-04-01T14:03:20;11.50;99.90
19025;DHT22;9645;51.448;6.260;2023-04-01T14:06:02;11.40;99.90
19025;DHT22;9645;51.448;6.260;2023-04-01T14:08:41;11.50;99.90
19025;DHT22;9645;51.448;6.260;2023-04-01T14:11:16;11.60;99.90
19025;DHT22;9645;51.448;6.260;2023-04-01T14:13:53;11.50;99.90
19025;DHT22;9645;51.448;6.260;2023-04-01T14:16:57;11.60;99.90
19025;DHT22;9645;51.448;6.260;2023-04-01T14:19:44;11.60;99.90
19025;DHT22;9645;51.448;6.260;2023-04-01T14:22:23;11.50;99.90
19025;DHT22;9645;51.448;6.260;2023-04-01T14:25:01;11.50;99.90
19025;DHT22;9645;51.448;6.260;2023-04-01T14:27:53;11.50;99.90
19025;DHT22;9645;51.448;6.260;2023-04-01T14:30:39;11.50;99.90
19025;DHT22;9645;51.448;6.260;2023-04-01T14:33:21;11.60;99.90
19025;DHT22;9645;51.448;6.260;2023-04-01T14:36:02;11.60;99.90
19025;DHT22;9645;51.448;6.260;2023-04-01T14:38:42;11.60;99.90
19025;DHT22;9645;51.448;6.260;2023-04-01T14:41:21;11.50;99.90
19025;DHT22;9645;51.448;6.260;2023-04-01T14:44:16;11.50;99.90
19025;DHT22;9645;51.448;6.260;2023-04-01T14:47:08;11.30;99.90
19025;DHT22;9645;51.448;6.260;2023-04-01T14:49:42;11.20;99.90
19025;DHT22;9645;51.448;6.260;2023-04-01T14:52:16;11.10;99.90
19025;DHT22;9645;51.448;6.260;2023-04-01T14:54:46;11.10;99.90
19025;DHT22;9645;51.448;6.260;2023-04-01T14:57:15;11.20;99.90
19025;DHT22;9645;51.448;6.260;2023-04-01T14:59:53;11.20;99.90
19025;DHT22;9645;51.448;6.260;2023-04-01T15:02:33;11.30;99.90
19025;DHT22;9645;51.448;6.260;2023-04-01T15:05:16;11.30;99.90
19025;DHT22;9645;51.448;6.260;2023-04-01T15:08:06;11.20;99.90
19025;DHT22;9645;51.448;6.260;2023-04-01T15:11:03;11.20;99.90
19025;DHT22;9645;51.448;6.260;2023-04-01T15:13:51;11.20;99.90
19025;DHT22;9645;51.448;6.260;2023-04-01T15:16:24;11.20;99.90
19025;DHT22;9645;51.448;6.260;2023-04-01T15:19:05;11.20;99.90
19025;DHT22;9645;51.448;6.260;2023-04-01T15:24:47;11.20;99.90
19025;DHT22;9645;51.448;6.260;2023-04-01T15:27:31;11.30;99.90
19025;DHT22;9645;51.448;6.260;2023-04-01T15:30:17;11.30;99.90
19025;DHT22;9645;51.448;6.260;2023-04-01T15:33:07;11.20;99.90
19025;DHT22;9645;51.448;6.260;2023-04-01T15:35:45;11.20;99.90
19025;DHT22;9645;51.448;6.260;2023-04-01T15:38:24;11.20;99.90
19025;DHT22;9645;51.448;6.260;2023-04-01T15:41:03;11.20;99.90
19025;DHT22;9645;51.448;6.260;2023-04-01T15:43:43;11.10;99.90
19025;DHT22;9645;51.448;6.260;2023-04-01T15:49:31;11.00;99.90
19025;DHT22;9645;51.448;6.260;2023-04-01T15:52:10;11.00;99.90
19025;DHT22;9645;51.448;6.260;2023-04-01T15:55:04;11.00;99.90
19025;DHT22;9645;51.448;6.260;2023-04-01T15:57:51;11.00;99.90
19025;DHT22;9645;51.448;6.260;2023-04-01T16:00:29;11.00;99.90
19025;DHT22;9645;51.448;6.260;2023-04-01T16:03:22;11.00;99.90
19025;DHT22;9645;51.448;6.260;2023-04-01T16:06:11;11.00;99.90
19025;DHT22;9645;51.448;6.260;2023-04-01T16:09:02;10.90;99.90
19025;DHT22;9645;51.448;6.260;2023-04-01T16:11:45;10.90;99.90
19025;DHT22;9645;51.448;6.260;2023-04-01T16:14:34;10.80;99.90
19025;DHT22;9645;51.448;6.260;2023-04-01T16:17:21;10.90;99.90
19025;DHT22;9645;51.448;6.260;2023-04-01T16:19:56;10.80;99.90
19025;DHT22;9645;51.448;6.260;2023-04-01T16:22:32;10.80;99.90
19025;DHT22;9645;51.448;6.260;2023-04-01T16:25:17;10.80;99.90
19025;DHT22;9645;51.448;6.260;2023-04-01T16:27:53;10.80;99.90
19025;DHT22;9645;51.448;6.260;2023-04-01T16:30:42;10.70;99.90
19025;DHT22;9645;51.448;6.260;2023-04-01T16:33:18;10.80;99.90
19025;DHT22;9645;51.448;6.260;2023-04-01T16:35:54;10.80;99.90
19025;DHT22;9645;51.448;6.260;2023-04-01T16:38:31;10.70;99.90
19025;DHT22;9645;51.448;6.260;2023-04-01T16:41:16;11.40;99.90
19025;DHT22;9645;51.448;6.260;2023-04-01T16:43:45;10.70;99.90
19025;DHT22;9645;51.448;6.260;2023-04-01T16:46:32;10.70;99.90
19025;DHT22;9645;51.448;6.260;2023-04-01T16:49:28;10.20;99.90
19025;DHT22;9645;51.448;6.260;2023-04-01T16:52:13;10.60;99.90
19025;DHT22;9645;51.448;6.260;2023-04-01T16:54:45;10.70;99.90
19025;DHT22;9645;51.448;6.260;2023-04-01T16:57:26;10.60;99.90
19025;DHT22;9645;51.448;6.260;2023-04-01T16:59:58;10.70;99.90
19025;DHT22;9645;51.448;6.260;2023-04-01T17:02:33;10.60;99.90
19025;DHT22;9645;51.448;6.260;2023-04-01T17:05:05;10.00;99.90
19025;DHT22;9645;51.448;6.260;2023-04-01T17:07:48;10.50;99.90
19025;DHT22;9645;51.448;6.260;2023-04-01T17:10:28;10.50;99.90
19025;DHT22;9645;51.448;6.260;2023-04-01T17:13:16;10.50;99.90
19025;DHT22;9645;51.448;6.260;2023-04-01T17:15:53;10.50;99.90
19025;DHT22;9645;51.448;6.260;2023-04-01T17:18:30;10.50;99.90
19025;DHT22;9645;51.448;6.260;2023-04-01T17:21:06;10.50;99.90
19025;DHT22;9645;51.448;6.260;2023-04-01T17:23:36;10.50;99.90
19025;DHT22;9645;51.448;6.260;2023-04-01T17:26:15;10.50;99.90
19025;DHT22;9645;51.448;6.260;2023-04-01T17:28:50;10.40;99.90
19025;DHT22;9645;51.448;6.260;2023-04-01T17:31:30;10.40;99.90
19025;DHT22;9645;51.448;6.260;2023-04-01T17:34:09;10.40;99.90
19025;DHT22;9645;51.448;6.260;2023-04-01T17:36:52;10.40;99.90
19025;DHT22;9645;51.448;6.260;2023-04-01T17:39:46;10.40;99.90
19025;DHT22;9645;51.448;6.260;2023-04-01T17:42:16;10.30;99.90
19025;DHT22;9645;51.448;6.260;2023-04-01T17:44:55;10.30;99.90
19025;DHT22;9645;51.448;6.260;2023-04-01T17:50:25;10.30;99.90
19025;DHT22;9645;51.448;6.260;2023-04-01T17:53:07;10.20;99.90
19025;DHT22;9645;51.448;6.260;2023-04-01T17:58:40;10.20;99.90
19025;DHT22;9645;51.448;6.260;2023-04-01T18:01:17;10.20;99.90
19025;DHT22;9645;51.448;6.260;2023-04-01T18:04:18;10.20;99.90
19025;DHT22;9645;51.448;6.260;2023-04-01T18:07:10;10.20;99.90
19025;DHT22;9645;51.448;6.260;2023-04-01T18:09:52;10.20;99.90